Terminal Aerodrome Forecast
Issued by NWS Billings, MT

Home | Current Version | Previous Version | Graphics & Text | Print | Product List | Glossary On
Versions: 1 2 3 4 5 6 7 8 9 10 11 12 13 14 15 16 17 18 19 20 21 22 23 24 25 26 27 28 29 30 31 32 33 34
000
FTUS45 KBYZ 301133 AAA
TAFMLS
TAF AMD
KMLS 301133Z 3012/0112 05011KT 2SM FU FEW090 SCT120
     FM301400 06014G20KT 2SM FU VCSH SCT070 BKN100
     FM301800 VRB06KT P6SM SCT090 BKN120
     FM302200 29012KT P6SM VCTS SCT070CB BKN100
     FM010100 32014G22KT P6SM SCT100=

USA.gov is the U.S. government's official web portal to all federal, state and local government web resources and services.